< Typhoon 195812 1958 Season Typhoon 195814 >
Typhoon 195813 (DORIS)
General InformationTrack Information on Google Maps || Disaster Info.ResourceGoogle EarthGE AnimationAtom FeedGeoJSON
Detalied Best Track (Time Zone = UTC)
Year Month Day Hour Lat. Long. Pressure (hPa) Wind (kt) Class Image Chart
1958 7 22 00 9.0 160.0 1008 0 2 -- Chart
1958 7 22 06 10.3 158.6 1000 0 9 -- Chart
1958 7 22 12 10.8 157.7 1000 0 9 -- Chart
1958 7 22 18 11.5 156.8 995 0 9 -- Chart
1958 7 23 00 12.4 155.5 995 0 9 -- Chart
1958 7 23 06 13.1 154.4 985 0 9 -- Chart
1958 7 23 12 13.6 153.3 985 0 9 -- Chart
1958 7 23 18 14.3 152.1 980 0 9 -- Chart
1958 7 24 00 14.8 150.8 975 0 9 -- Chart
1958 7 24 06 15.8 149.5 955 0 9 -- Chart
1958 7 24 12 16.7 148.3 955 0 9 -- Chart
1958 7 24 18 17.7 147.3 940 0 9 -- Chart
1958 7 25 00 18.3 145.6 935 0 9 -- Chart
1958 7 25 06 19.6 143.6 935 0 9 -- Chart
1958 7 25 12 20.6 142.5 940 0 9 -- Chart
1958 7 25 18 22.3 141.1 940 0 9 -- Chart
1958 7 26 00 23.2 140.0 940 0 9 -- Chart
1958 7 26 06 24.4 138.8 935 0 9 -- Chart
1958 7 26 12 25.3 137.8 940 0 9 -- Chart
1958 7 26 18 25.6 137.0 940 0 9 -- Chart
1958 7 27 00 26.0 136.5 945 0 9 -- Chart
1958 7 27 06 26.5 136.1 950 0 9 -- Chart
1958 7 27 12 26.7 135.7 960 0 9 -- Chart
1958 7 27 18 27.3 134.9 975 0 9 -- Chart
1958 7 28 00 28.2 134.7 980 0 9 -- Chart
1958 7 28 06 28.7 134.9 990 0 9 -- Chart
1958 7 28 12 29.2 135.3 1000 0 9 -- Chart
1958 7 28 18 29.6 135.8 1000 0 9 -- Chart
1958 7 29 00 29.9 136.4 1000 0 9 -- Chart
1958 7 29 06 30.5 137.6 1000 0 9 -- Chart
1958 7 29 12 31.0 138.0 1000 0 9 -- Chart
1958 7 29 18 31.5 138.8 1000 0 9 -- Chart
1958 7 30 00 31.9 139.5 1006 0 6 -- Chart
1958 7 30 06 32.5 141.0 1004 0 6 -- Chart
1958 7 30 12 33.0 142.0 1006 0 6 -- Chart
Japan Meteorological Agency Best Track Data | Correction Date : 1989-06-01
< Typhoon 195812 1958 Season Typhoon 195814 >

Help